createdAt,value
2022-11-03T00:00:35.318Z,1020.51
2022-11-03T00:05:42.593Z,1020.56
2022-11-03T00:10:49.850Z,1020.52
2022-11-03T00:15:57.039Z,1020.54
2022-11-03T00:21:04.268Z,1020.56
2022-11-03T00:26:11.474Z,1020.55
2022-11-03T00:31:18.704Z,1020.56
2022-11-03T00:36:25.882Z,1020.59
2022-11-03T00:41:33.182Z,1020.52
2022-11-03T00:46:40.368Z,1020.45
2022-11-03T00:51:47.549Z,1020.55
2022-11-03T00:56:54.757Z,1020.56
2022-11-03T01:02:02.101Z,1020.51
2022-11-03T01:07:09.172Z,1020.43
2022-11-03T01:12:16.389Z,1020.36
2022-11-03T01:17:23.623Z,1020.36
2022-11-03T01:22:30.772Z,1020.28
2022-11-03T01:27:37.983Z,1020.19
2022-11-03T01:32:45.215Z,1020.09
2022-11-03T01:37:52.430Z,1020.03
2022-11-03T01:42:59.595Z,1019.92
2022-11-03T01:48:06.832Z,1019.90
2022-11-03T01:53:14.010Z,1019.87
2022-11-03T01:58:21.232Z,1019.74
2022-11-03T02:03:28.451Z,1019.74
2022-11-03T02:08:35.622Z,1019.70
2022-11-03T02:13:42.800Z,1019.54
2022-11-03T02:18:50.251Z,1019.46
2022-11-03T02:23:57.375Z,1019.38
2022-11-03T02:29:04.663Z,1019.31
2022-11-03T02:34:11.866Z,1019.32
2022-11-03T02:39:19.053Z,1019.33
2022-11-03T02:44:26.283Z,1019.26
2022-11-03T02:49:33.587Z,1019.27
2022-11-03T02:54:40.888Z,1019.21
2022-11-03T02:59:48.169Z,1019.09
2022-11-03T03:04:55.431Z,1019.11
2022-11-03T03:10:02.593Z,1019.07
2022-11-03T03:15:09.792Z,1019.07
2022-11-03T03:20:17.023Z,1019.04
2022-11-03T03:25:24.269Z,1019.04
2022-11-03T03:30:31.452Z,1018.95
2022-11-03T03:35:38.756Z,1018.93
2022-11-03T03:40:45.951Z,1018.86
2022-11-03T03:45:53.155Z,1018.93
2022-11-03T03:51:00.410Z,1018.91
2022-11-03T03:56:08.885Z,1018.87
2022-11-03T04:01:16.279Z,1018.80
2022-11-03T04:06:23.500Z,1018.78
2022-11-03T04:11:30.634Z,1018.66
2022-11-03T04:16:37.924Z,1018.63
2022-11-03T04:21:45.141Z,1018.63
2022-11-03T04:26:52.289Z,1018.58
2022-11-03T04:31:59.462Z,1018.48
2022-11-03T04:37:06.734Z,1018.37
2022-11-03T04:42:13.864Z,1018.24
2022-11-03T04:47:21.328Z,1018.18
2022-11-03T04:52:28.548Z,1018.10
2022-11-03T04:57:35.750Z,1018.12
2022-11-03T05:02:42.927Z,1018.13
2022-11-03T05:07:50.145Z,1017.97
2022-11-03T05:12:57.344Z,1017.86
2022-11-03T05:18:04.493Z,1017.80
2022-11-03T05:23:11.730Z,1017.72
2022-11-03T05:28:18.877Z,1017.63
2022-11-03T05:33:26.076Z,1017.56
2022-11-03T05:38:33.320Z,1017.55
2022-11-03T05:43:40.480Z,1017.61
2022-11-03T05:48:47.674Z,1017.50
2022-11-03T05:53:54.904Z,1017.55
2022-11-03T05:59:02.086Z,1017.46
2022-11-03T06:04:09.396Z,1017.49
2022-11-03T06:09:16.718Z,1017.40
2022-11-03T06:14:24.861Z,1017.25
2022-11-03T06:19:30.997Z,1017.23
2022-11-03T06:24:38.860Z,1017.20
2022-11-03T06:29:46.036Z,1017.26
2022-11-03T06:34:53.318Z,1017.14
2022-11-03T06:40:00.568Z,1017.10
2022-11-03T06:45:07.769Z,1017.26
2022-11-03T06:50:14.987Z,1017.17
2022-11-03T06:55:22.167Z,1017.11
2022-11-03T07:00:39.659Z,1017.07
2022-11-03T07:05:36.576Z,1017.03
2022-11-03T07:10:43.798Z,1016.91
2022-11-03T07:15:50.970Z,1016.87
2022-11-03T07:20:58.202Z,1016.87
2022-11-03T07:26:05.453Z,1016.77
2022-11-03T07:31:16.272Z,1016.75
2022-11-03T07:36:19.849Z,1016.70
2022-11-03T07:41:31.096Z,1016.63
2022-11-03T07:46:34.299Z,1016.62
2022-11-03T07:51:41.508Z,1016.58
2022-11-03T07:56:48.794Z,1016.56
2022-11-03T08:01:56.066Z,1016.48
2022-11-03T08:07:03.138Z,1016.43
2022-11-03T08:12:10.342Z,1016.38
2022-11-03T08:17:17.556Z,1016.26
2022-11-03T08:22:24.735Z,1016.14
2022-11-03T08:27:31.957Z,1016.05
2022-11-03T08:32:39.165Z,1016.03
2022-11-03T08:37:46.354Z,1015.97
2022-11-03T08:42:53.595Z,1015.89
2022-11-03T08:48:00.765Z,1015.94
2022-11-03T08:53:07.962Z,1015.97
2022-11-03T08:58:15.295Z,1015.88
2022-11-03T09:03:22.654Z,1015.80
2022-11-03T09:13:36.929Z,1015.75
2022-11-03T09:18:44.206Z,1015.69
2022-11-03T09:23:51.611Z,1015.57
2022-11-03T09:28:58.853Z,1015.51
2022-11-03T09:34:06.049Z,1015.52
2022-11-03T09:39:13.286Z,1015.44
2022-11-03T09:44:20.552Z,1015.48
2022-11-03T09:49:27.725Z,1015.51
2022-11-03T09:54:34.940Z,1015.44
2022-11-03T09:59:42.159Z,1015.46
2022-11-03T10:04:49.320Z,1015.51
2022-11-03T10:09:56.545Z,1015.48
2022-11-03T10:15:06.075Z,1015.38
2022-11-03T10:20:13.259Z,1015.42
2022-11-03T10:25:20.559Z,1015.45
2022-11-03T10:30:32.488Z,1015.35
2022-11-03T10:35:34.918Z,1015.38
2022-11-03T10:40:47.774Z,1015.28
2022-11-03T10:45:49.379Z,1015.32
2022-11-03T10:50:56.541Z,1015.35
2022-11-03T10:56:03.838Z,1015.17
2022-11-03T11:01:11.189Z,1015.21
2022-11-03T11:06:18.251Z,1015.16
2022-11-03T11:11:25.461Z,1015.10
2022-11-03T11:16:32.723Z,1015.13
2022-11-03T11:21:39.969Z,1015.24
2022-11-03T11:26:47.178Z,1015.10
2022-11-03T11:31:54.459Z,1015.01
2022-11-03T11:37:01.604Z,1014.97
2022-11-03T11:42:08.981Z,1014.89
2022-11-03T11:47:16.087Z,1014.73
2022-11-03T11:52:23.214Z,1014.61
2022-11-03T11:57:30.465Z,1014.61
2022-11-03T12:02:37.748Z,1014.60
2022-11-03T12:07:44.926Z,1014.44
2022-11-03T12:12:52.176Z,1014.30
2022-11-03T12:17:59.479Z,1014.18
2022-11-03T12:23:06.742Z,1013.94
2022-11-03T12:28:13.985Z,1013.73
2022-11-03T12:33:21.203Z,1013.60
2022-11-03T12:38:28.356Z,1013.47
2022-11-03T12:43:35.578Z,1013.19
2022-11-03T12:48:42.761Z,1013.16
2022-11-03T12:53:49.983Z,1013.11
2022-11-03T12:58:57.255Z,1012.98
2022-11-03T13:04:04.585Z,1012.85
2022-11-03T13:09:11.647Z,1012.64
2022-11-03T13:14:18.877Z,1012.33
2022-11-03T13:19:26.146Z,1012.18
2022-11-03T13:24:33.341Z,1012.13
2022-11-03T13:29:40.614Z,1012.16
2022-11-03T13:34:47.844Z,1011.96
2022-11-03T13:39:55.023Z,1011.84
2022-11-03T13:45:02.194Z,1011.91
2022-11-03T13:50:14.547Z,1011.72
2022-11-03T14:00:24.313Z,1011.44
2022-11-03T14:05:31.561Z,1011.16
2022-11-03T14:10:38.727Z,1011.07
2022-11-03T14:15:45.965Z,1010.76
2022-11-03T14:20:53.205Z,1010.66
2022-11-03T14:26:13.238Z,1010.65
2022-11-03T14:31:07.623Z,1010.64
2022-11-03T14:36:14.995Z,1010.63
2022-11-03T14:41:22.210Z,1010.74
2022-11-03T14:46:29.536Z,1010.62
2022-11-03T14:51:36.812Z,1010.60
2022-11-03T14:56:44.065Z,1010.46
2022-11-03T15:01:51.449Z,1010.28
2022-11-03T15:06:58.507Z,1010.25
2022-11-03T15:12:05.679Z,1010.00
2022-11-03T15:17:12.923Z,1009.92
2022-11-03T15:22:20.380Z,1009.81
2022-11-03T15:27:27.379Z,1009.75
2022-11-03T15:32:36.525Z,1009.61
2022-11-03T15:37:41.789Z,1009.51
2022-11-03T15:42:48.941Z,1009.45
2022-11-03T15:47:58.523Z,1009.42
2022-11-03T15:53:03.420Z,1009.18
2022-11-03T15:58:10.840Z,1009.08
2022-11-03T16:03:17.951Z,1009.01
2022-11-03T16:08:25.174Z,1008.76
2022-11-03T16:13:32.781Z,1008.59
2022-11-03T16:18:40.148Z,1008.37
2022-11-03T16:23:47.470Z,1008.27
2022-11-03T16:28:54.803Z,1008.19
2022-11-03T16:34:02.131Z,1008.13
2022-11-03T16:39:09.414Z,1007.98
2022-11-03T16:44:18.471Z,1007.95
2022-11-03T16:49:25.734Z,1007.83
2022-11-03T16:54:33.315Z,1007.79
2022-11-03T16:59:40.694Z,1007.82
2022-11-03T17:04:48.225Z,1007.72
2022-11-03T17:09:55.645Z,1007.72
2022-11-03T17:15:03.131Z,1007.60
2022-11-03T17:20:10.433Z,1007.73
2022-11-03T17:25:17.626Z,1007.66
2022-11-03T17:30:24.890Z,1007.58
2022-11-03T17:35:37.741Z,1007.50
2022-11-03T17:40:39.714Z,1007.39
2022-11-03T17:45:46.866Z,1007.36
2022-11-03T17:50:55.301Z,1007.22
2022-11-03T17:56:28.392Z,1007.21
2022-11-03T18:01:10.642Z,1007.21
2022-11-03T18:06:18.141Z,1007.28
2022-11-03T18:11:26.703Z,1007.15
2022-11-03T18:16:34.196Z,1006.95
2022-11-03T18:21:41.529Z,1006.94
2022-11-03T18:26:49.039Z,1007.04
2022-11-03T18:31:56.649Z,1006.98
2022-11-03T18:37:04.133Z,1006.92
2022-11-03T18:42:11.645Z,1006.82
2022-11-03T18:47:18.858Z,1006.64
2022-11-03T18:52:26.371Z,1006.62
2022-11-03T18:57:34.032Z,1006.61
2022-11-03T19:02:42.187Z,1006.43
2022-11-03T19:07:49.524Z,1006.38
2022-11-03T19:12:57.150Z,1006.36
2022-11-03T19:18:04.903Z,1006.22
2022-11-03T19:23:13.784Z,1006.04
2022-11-03T19:28:21.234Z,1005.97
2022-11-03T19:33:28.835Z,1005.76
2022-11-03T19:38:36.158Z,1005.71
2022-11-03T19:43:43.757Z,1005.68
2022-11-03T19:48:51.085Z,1005.73
2022-11-03T19:53:58.553Z,1005.51
2022-11-03T19:59:06.208Z,1005.50
2022-11-03T20:04:13.527Z,1005.46
2022-11-03T20:09:21.107Z,1005.30
2022-11-03T20:14:28.832Z,1005.08
2022-11-03T20:19:36.418Z,1004.90
2022-11-03T20:24:44.137Z,1004.86
2022-11-03T20:29:51.777Z,1004.80
2022-11-03T20:34:59.365Z,1004.76
2022-11-03T20:40:06.987Z,1004.86
2022-11-03T20:45:14.521Z,1005.04
2022-11-03T20:50:22.109Z,1005.32
2022-11-03T20:55:29.719Z,1005.56
2022-11-03T21:00:37.130Z,1005.81
2022-11-03T21:05:44.353Z,1006.00
2022-11-03T21:10:51.745Z,1006.38
2022-11-03T21:16:23.137Z,1006.50
2022-11-03T21:21:10.887Z,1006.84
2022-11-03T21:26:14.304Z,1006.81
2022-11-03T21:31:21.626Z,1007.05
2022-11-03T21:36:29.021Z,1007.39
2022-11-03T21:41:36.396Z,1007.51
2022-11-03T21:46:43.669Z,1007.60
2022-11-03T21:51:50.849Z,1007.57
2022-11-03T21:56:58.029Z,1007.68
2022-11-03T22:02:05.481Z,1007.96
2022-11-03T22:07:12.494Z,1007.97
2022-11-03T22:12:19.642Z,1008.12
2022-11-03T22:17:26.872Z,1008.33
2022-11-03T22:22:34.047Z,1008.27
2022-11-03T22:27:41.255Z,1008.69
2022-11-03T22:32:50.227Z,1009.10
2022-11-03T22:37:57.411Z,1009.19
2022-11-03T22:43:04.844Z,1009.11
2022-11-03T22:48:11.861Z,1009.19
2022-11-03T22:53:19.035Z,1009.46
2022-11-03T22:58:30.613Z,1009.63
2022-11-03T23:03:34.425Z,1010.03
2022-11-03T23:08:41.677Z,1010.38
2022-11-03T23:13:48.842Z,1010.50
2022-11-03T23:18:56.059Z,1010.43
2022-11-03T23:24:03.217Z,1010.19
2022-11-03T23:29:10.468Z,1010.28
2022-11-03T23:34:17.708Z,1010.41
2022-11-03T23:39:24.935Z,1010.38
2022-11-03T23:44:32.146Z,1010.34
2022-11-03T23:49:39.385Z,1010.48
2022-11-03T23:54:46.616Z,1010.52
2022-11-03T23:59:53.771Z,1010.40
